Time;durP1;ratioP1;P1;durP2;ratioP2;P2;SDS_P1;SDS_P2;PMS_P1;PMS_P2;Temp;Humidity;BMP_temperature;BMP_pressure;BME280_temperature;BME280_humidity;BME280_pressure;Samples;Min_cycle;Max_cycle;Signal;HPM_P1;HPM_P2
2022/09/16 00:01:25;;;;;;;0.50;0.50;;;11.30;99.90;;;;;;5034827;28;20507;-68
2022/09/16 00:04:13;;;;;;;0.40;0.40;;;11.30;99.90;;;;;;5034898;28;20540;-68
2022/09/16 00:07:03;;;;;;;0.50;0.50;;;11.30;99.90;;;;;;5035909;28;20459;-68
2022/09/16 00:09:51;;;;;;;0.40;0.40;;;11.70;99.90;;;;;;5035309;28;20796;-70
2022/09/16 00:12:39;;;;;;;0.40;0.40;;;11.40;99.90;;;;;;5035130;28;20512;-68
2022/09/16 00:15:27;;;;;;;0.50;0.50;;;11.30;99.90;;;;;;5035170;28;20425;-69
2022/09/16 00:18:17;;;;;;;0.40;0.40;;;11.30;99.90;;;;;;5036044;28;20428;-68
2022/09/16 00:21:08;;;;;;;0.40;0.40;;;11.20;99.90;;;;;;5035420;28;20512;-69
2022/09/16 00:23:57;;;;;;;0.40;0.40;;;11.20;99.90;;;;;;5035058;28;20958;-70
2022/09/16 00:26:45;;;;;;;0.40;0.40;;;11.20;99.90;;;;;;5034770;28;20429;-69
2022/09/16 00:29:33;;;;;;;0.40;0.40;;;11.10;99.90;;;;;;5034880;28;20493;-68
2022/09/16 00:32:22;;;;;;;0.60;0.60;;;11.20;99.90;;;;;;5034792;28;21063;-68
2022/09/16 00:35:12;;;;;;;0.40;0.40;;;11.10;99.90;;;;;;5035188;28;21054;-66
2022/09/16 00:38:00;;;;;;;1.07;1.07;;;11.10;99.90;;;;;;5034655;28;20429;-69
2022/09/16 00:40:49;;;;;;;0.40;0.40;;;11.00;99.90;;;;;;5034396;28;20445;-67
2022/09/16 00:43:53;;;;;;;0.40;0.40;;;11.00;99.90;;;;;;5034755;28;20453;-68
2022/09/16 00:46:45;;;;;;;0.40;0.40;;;11.10;99.90;;;;;;5034817;28;20431;-67
2022/09/16 00:49:33;;;;;;;0.40;0.40;;;11.00;99.90;;;;;;5035153;28;20508;-68
2022/09/16 00:52:23;;;;;;;0.47;0.47;;;11.00;99.90;;;;;;5034779;28;20468;-67
2022/09/16 00:55:15;;;;;;;0.40;0.40;;;11.00;99.90;;;;;;5033683;28;20590;-69
2022/09/16 00:58:10;;;;;;;0.40;0.40;;;10.90;99.90;;;;;;5034434;28;20950;-67
2022/09/16 01:00:58;;;;;;;0.40;0.40;;;10.90;99.90;;;;;;5033912;28;21014;-69
2022/09/16 01:03:49;;;;;;;0.40;0.40;;;10.90;99.90;;;;;;5033635;28;20874;-67
2022/09/16 01:06:39;;;;;;;0.40;0.40;;;10.80;99.90;;;;;;5034304;28;20421;-68
2022/09/16 01:09:30;;;;;;;0.50;0.50;;;10.90;99.90;;;;;;5033391;28;20421;-68
2022/09/16 01:12:18;;;;;;;0.50;0.50;;;10.90;99.90;;;;;;5035416;28;20472;-68
2022/09/16 01:15:07;;;;;;;0.40;0.40;;;10.90;99.90;;;;;;5041110;28;20500;-69
2022/09/16 01:18:09;;;;;;;0.40;0.40;;;10.80;99.90;;;;;;5033209;28;20460;-68
2022/09/16 01:21:15;;;;;;;0.43;0.43;;;10.80;99.90;;;;;;5033590;28;20420;-66
2022/09/16 01:24:31;;;;;;;0.40;0.40;;;10.80;99.90;;;;;;5034250;28;20536;-67
2022/09/16 01:27:58;;;;;;;0.40;0.40;;;10.80;99.90;;;;;;5034420;28;20512;-68
2022/09/16 01:31:01;;;;;;;0.47;0.47;;;10.80;99.90;;;;;;4997892;28;20441;-67
2022/09/16 01:33:59;;;;;;;0.50;0.50;;;10.70;99.90;;;;;;5033862;28;20982;-68
2022/09/16 01:36:57;;;;;;;0.40;0.40;;;10.70;99.90;;;;;;5034467;28;20504;-69
2022/09/16 01:39:56;;;;;;;0.90;0.90;;;10.80;99.90;;;;;;5034047;28;20429;-68
2022/09/16 01:42:55;;;;;;;0.40;0.40;;;10.70;99.90;;;;;;5033738;28;20432;-68
2022/09/16 01:45:51;;;;;;;0.50;0.50;;;10.70;99.90;;;;;;5034704;28;20460;-68
2022/09/16 01:48:43;;;;;;;0.50;0.50;;;10.70;99.90;;;;;;5034684;28;20776;-69
2022/09/16 01:51:41;;;;;;;0.70;0.70;;;10.70;99.90;;;;;;5033786;28;20465;-67
2022/09/16 01:54:33;;;;;;;0.57;0.50;;;10.70;99.90;;;;;;5033656;28;20445;-67
2022/09/16 01:57:26;;;;;;;0.40;0.40;;;10.70;99.90;;;;;;5033749;28;20456;-67
2022/09/16 02:00:15;;;;;;;0.50;0.50;;;10.60;99.90;;;;;;5033764;28;20539;-67
2022/09/16 02:03:08;;;;;;;0.50;0.50;;;10.60;99.90;;;;;;5033427;28;20555;-67
2022/09/16 02:06:00;;;;;;;0.40;0.40;;;10.60;99.90;;;;;;5034077;28;20467;-70
2022/09/16 02:08:55;;;;;;;0.40;0.40;;;10.50;99.90;;;;;;5034085;28;20417;-68
2022/09/16 02:11:47;;;;;;;0.40;0.40;;;10.60;99.90;;;;;;5033800;28;20586;-67
2022/09/16 02:14:40;;;;;;;0.50;0.50;;;10.60;99.90;;;;;;5034453;28;20453;-67
2022/09/16 02:17:32;;;;;;;0.40;0.40;;;10.60;99.90;;;;;;5033957;28;20512;-68
2022/09/16 02:20:26;;;;;;;0.40;0.40;;;10.50;99.90;;;;;;5033467;28;20495;-68
2022/09/16 02:23:18;;;;;;;0.50;0.50;;;10.40;99.90;;;;;;5033101;28;20437;-68
2022/09/16 02:26:10;;;;;;;0.40;0.40;;;10.40;99.90;;;;;;5033940;28;20475;-67
2022/09/16 02:29:00;;;;;;;0.40;0.40;;;10.40;99.90;;;;;;5032141;28;20439;-68
2022/09/16 02:31:50;;;;;;;0.50;0.50;;;10.40;99.90;;;;;;5033791;28;20457;-69
2022/09/16 02:34:46;;;;;;;0.40;0.40;;;9.90;99.90;;;;;;5033504;28;20841;-68
2022/09/16 02:37:41;;;;;;;0.40;0.40;;;10.40;99.90;;;;;;5033670;28;20961;-68
2022/09/16 02:40:34;;;;;;;0.40;0.40;;;10.30;99.90;;;;;;5033775;28;20567;-67
2022/09/16 02:43:23;;;;;;;0.40;0.40;;;10.30;99.90;;;;;;5032997;28;20445;-68
2022/09/16 02:46:19;;;;;;;0.90;0.90;;;10.30;99.90;;;;;;5033038;28;20427;-68
2022/09/16 02:49:13;;;;;;;0.40;0.40;;;10.20;99.90;;;;;;5033916;28;20957;-67
2022/09/16 02:52:12;;;;;;;0.40;0.40;;;10.30;99.90;;;;;;5033805;28;20552;-69
2022/09/16 02:55:13;;;;;;;0.50;0.50;;;10.30;99.90;;;;;;5033264;28;20429;-67
2022/09/16 02:58:01;;;;;;;0.40;0.40;;;10.30;99.90;;;;;;5033399;28;20440;-67
2022/09/16 03:00:52;;;;;;;0.60;0.60;;;10.30;99.90;;;;;;5037183;28;20972;-68
2022/09/16 03:03:40;;;;;;;0.40;0.40;;;10.20;99.90;;;;;;5036735;28;20495;-67
2022/09/16 03:06:34;;;;;;;0.40;0.40;;;10.20;99.90;;;;;;5037171;28;20460;-68
2022/09/16 03:09:23;;;;;;;0.50;0.50;;;10.20;99.90;;;;;;5035932;28;20452;-70
2022/09/16 03:12:40;;;;;;;0.60;0.60;;;10.20;99.90;;;;;;5036741;28;20468;-68
2022/09/16 03:15:36;;;;;;;0.77;0.70;;;10.20;99.90;;;;;;5037065;28;20519;-68
2022/09/16 03:18:50;;;;;;;1.00;0.63;;;10.20;99.90;;;;;;5036900;28;20520;-68
2022/09/16 03:21:47;;;;;;;0.40;0.40;;;10.20;99.90;;;;;;5035782;28;20417;-68
2022/09/16 03:24:46;;;;;;;0.40;0.40;;;10.20;99.90;;;;;;5036339;28;20445;-66
2022/09/16 03:27:40;;;;;;;0.50;0.50;;;10.30;99.90;;;;;;5037393;28;20791;-68
2022/09/16 03:30:33;;;;;;;0.40;0.40;;;10.20;99.90;;;;;;5035713;28;20435;-68
2022/09/16 03:33:26;;;;;;;0.40;0.40;;;10.20;99.90;;;;;;5036557;28;20551;-66
2022/09/16 03:36:20;;;;;;;0.40;0.40;;;10.20;99.90;;;;;;5036781;28;20447;-68
2022/09/16 03:39:10;;;;;;;0.43;0.43;;;10.20;99.90;;;;;;5036195;28;20429;-68
2022/09/16 03:42:01;;;;;;;0.60;0.60;;;10.20;99.90;;;;;;5036827;28;20512;-66
2022/09/16 03:44:50;;;;;;;0.50;0.50;;;10.30;99.90;;;;;;5036400;28;20491;-68
2022/09/16 03:47:39;;;;;;;0.73;0.73;;;10.20;99.90;;;;;;5036736;28;20429;-66
2022/09/16 03:50:27;;;;;;;0.40;0.40;;;10.30;99.90;;;;;;5036225;28;20426;-67
2022/09/16 03:53:15;;;;;;;0.50;0.50;;;;;;;;;;5036201;28;20469;-68
2022/09/16 03:56:03;;;;;;;0.40;0.40;;;10.10;99.90;;;;;;5035984;28;20716;-68
2022/09/16 03:58:51;;;;;;;0.40;0.40;;;10.10;99.90;;;;;;5035353;28;20422;-67
2022/09/16 04:01:41;;;;;;;0.60;0.50;;;10.10;99.90;;;;;;5036259;28;20431;-68
2022/09/16 04:04:29;;;;;;;0.40;0.40;;;10.10;99.90;;;;;;5035515;28;20834;-67
2022/09/16 04:07:17;;;;;;;0.50;0.50;;;10.10;99.90;;;;;;5036143;28;20421;-68
2022/09/16 04:10:06;;;;;;;0.50;0.50;;;10.00;99.90;;;;;;5034791;28;20511;-69
2022/09/16 04:12:57;;;;;;;0.40;0.40;;;10.00;99.90;;;;;;5035795;28;20473;-67
2022/09/16 04:15:45;;;;;;;0.60;0.60;;;10.00;99.90;;;;;;5035955;28;20512;-67
2022/09/16 04:18:35;;;;;;;0.40;0.40;;;10.00;99.90;;;;;;5035962;28;20453;-66
2022/09/16 04:21:24;;;;;;;0.40;0.40;;;10.00;99.90;;;;;;5034655;28;20950;-67
2022/09/16 04:24:12;;;;;;;0.40;0.40;;;9.90;99.90;;;;;;5036006;28;20445;-67
2022/09/16 04:27:00;;;;;;;0.50;0.50;;;9.90;99.90;;;;;;5035995;28;20422;-67
2022/09/16 04:29:48;;;;;;;0.40;0.40;;;9.90;99.90;;;;;;5034956;28;20421;-67
2022/09/16 04:32:36;;;;;;;0.40;0.40;;;9.80;99.90;;;;;;5034726;28;20484;-67
2022/09/16 04:35:26;;;;;;;0.40;0.40;;;9.80;99.90;;;;;;5034804;28;20512;-67
2022/09/16 04:38:14;;;;;;;0.57;0.57;;;9.80;99.90;;;;;;5035386;28;21009;-67
2022/09/16 04:41:03;;;;;;;0.80;0.80;;;9.80;99.90;;;;;;5034888;28;20421;-69
2022/09/16 04:43:52;;;;;;;0.40;0.40;;;9.90;99.90;;;;;;5034990;28;20533;-68
2022/09/16 04:46:40;;;;;;;0.40;0.40;;;9.90;99.90;;;;;;5035184;28;20421;-67
2022/09/16 04:49:28;;;;;;;0.50;0.50;;;9.90;99.90;;;;;;5035180;28;20425;-68
2022/09/16 04:52:18;;;;;;;0.40;0.40;;;10.00;99.90;;;;;;5035195;28;20437;-67
2022/09/16 04:55:06;;;;;;;0.40;0.40;;;9.90;99.90;;;;;;5034344;28;20420;-68
2022/09/16 04:57:54;;;;;;;0.50;0.50;;;9.90;99.90;;;;;;5034399;28;20958;-67
2022/09/16 05:00:42;;;;;;;0.40;0.40;;;10.00;99.90;;;;;;5034405;28;20524;-68
2022/09/16 05:03:30;;;;;;;0.50;0.50;;;9.90;99.90;;;;;;5034784;28;20540;-67
2022/09/16 05:06:21;;;;;;;0.40;0.40;;;9.90;99.90;;;;;;5034536;28;20433;-67
2022/09/16 05:09:12;;;;;;;0.40;0.40;;;9.90;99.90;;;;;;5034638;28;20525;-68
2022/09/16 05:12:00;;;;;;;0.40;0.40;;;10.00;99.90;;;;;;5034303;28;20431;-67
2022/09/16 05:14:48;;;;;;;0.40;0.40;;;9.90;99.90;;;;;;5034442;28;20461;-67
2022/09/16 05:17:36;;;;;;;0.40;0.40;;;9.90;99.90;;;;;;5036103;28;20431;-67
2022/09/16 05:20:38;;;;;;;0.60;0.60;;;10.00;99.90;;;;;;5037941;28;20431;-67
2022/09/16 05:23:27;;;;;;;0.47;0.47;;;10.00;99.90;;;;;;5033261;28;20961;-67
2022/09/16 05:26:18;;;;;;;0.40;0.40;;;9.90;99.90;;;;;;5125157;22;20490;-71
2022/09/16 05:29:09;;;;;;;0.40;0.40;;;10.20;99.90;;;;;;5116191;28;20495;-68
2022/09/16 05:31:57;;;;;;;0.40;0.40;;;10.20;99.90;;;;;;5116652;28;20949;-71
2022/09/16 05:34:45;;;;;;;0.40;0.40;;;10.20;99.90;;;;;;5117147;28;20550;-69
2022/09/16 05:37:33;;;;;;;0.40;0.40;;;10.20;99.90;;;;;;5125088;28;20417;-70
2022/09/16 05:40:21;;;;;;;0.40;0.40;;;10.20;99.90;;;;;;5132174;28;20456;-69
2022/09/16 05:43:11;;;;;;;0.40;0.40;;;10.20;99.90;;;;;;5133802;28;20425;-68
2022/09/16 05:46:00;;;;;;;0.63;0.60;;;10.20;99.90;;;;;;5131527;28;20441;-69
2022/09/16 05:48:48;;;;;;;0.40;0.40;;;10.30;99.90;;;;;;5133924;28;20448;-69
2022/09/16 05:51:37;;;;;;;0.50;0.50;;;10.30;99.90;;;;;;5132977;28;20457;-69
2022/09/16 05:54:25;;;;;;;0.40;0.40;;;10.40;99.90;;;;;;5132797;28;20461;-68
2022/09/16 05:57:13;;;;;;;0.50;0.50;;;10.40;99.90;;;;;;5132724;28;20421;-70
2022/09/16 06:00:04;;;;;;;0.40;0.40;;;10.50;99.90;;;;;;5128135;28;20504;-69
2022/09/16 06:02:52;;;;;;;0.40;0.40;;;10.60;99.90;;;;;;5122605;28;20433;-69
2022/09/16 06:05:40;;;;;;;0.50;0.50;;;10.60;99.90;;;;;;5129252;28;20532;-71
2022/09/16 06:08:34;;;;;;;0.50;0.50;;;10.70;99.90;;;;;;5113998;28;20429;-70
2022/09/16 06:11:23;;;;;;;0.40;0.40;;;10.90;99.90;;;;;;5113626;28;20457;-71
2022/09/16 06:14:12;;;;;;;0.40;0.40;;;11.40;99.90;;;;;;5115611;28;20546;-71
2022/09/16 06:17:02;;;;;;;0.40;0.40;;;11.40;99.90;;;;;;5114154;28;20428;-73
2022/09/16 06:19:50;;;;;;;0.40;0.40;;;11.50;99.90;;;;;;5109717;28;20525;-71
2022/09/16 06:22:38;;;;;;;0.40;0.40;;;11.70;99.90;;;;;;5093753;28;20492;-71
2022/09/16 06:25:26;;;;;;;1.53;1.03;;;11.80;99.90;;;;;;5093764;28;20537;-73
2022/09/16 06:28:15;;;;;;;0.50;0.50;;;11.90;99.90;;;;;;5094859;28;20437;-71
2022/09/16 06:31:05;;;;;;;0.73;0.70;;;12.00;99.90;;;;;;5110135;28;20425;-71
2022/09/16 06:33:57;;;;;;;0.83;0.60;;;12.20;99.90;;;;;;5096029;28;20462;-71
2022/09/16 06:36:45;;;;;;;2.20;1.67;;;12.20;99.90;;;;;;5098456;28;20425;-70
2022/09/16 06:39:33;;;;;;;0.40;0.40;;;12.10;99.90;;;;;;5099765;28;20824;-69
2022/09/16 06:42:21;;;;;;;0.50;0.50;;;12.00;99.90;;;;;;5098779;28;20428;-69
2022/09/16 06:45:10;;;;;;;0.97;0.70;;;12.10;99.90;;;;;;5097262;28;20541;-69
2022/09/16 06:48:00;;;;;;;0.40;0.40;;;12.00;99.90;;;;;;5099039;28;20954;-69
2022/09/16 06:50:56;;;;;;;0.47;0.47;;;12.10;99.90;;;;;;5100039;28;20418;-69
2022/09/16 06:53:46;;;;;;;0.50;0.50;;;12.10;99.90;;;;;;5101496;28;20468;-69
2022/09/16 06:56:37;;;;;;;0.77;0.60;;;12.10;99.90;;;;;;5100888;28;20444;-69
2022/09/16 06:59:26;;;;;;;0.83;0.80;;;12.10;99.90;;;;;;5100133;28;20450;-69
2022/09/16 07:02:14;;;;;;;0.70;0.60;;;12.20;99.90;;;;;;5101075;28;20508;-70
2022/09/16 07:05:02;;;;;;;0.87;0.87;;;12.40;99.90;;;;;;5117551;28;20523;-69
2022/09/16 07:07:52;;;;;;;0.90;0.90;;;12.50;99.90;;;;;;5116868;27;20504;-70
2022/09/16 07:10:40;;;;;;;0.60;0.60;;;12.60;99.90;;;;;;5109953;28;20953;-69
2022/09/16 07:13:29;;;;;;;0.40;0.40;;;12.60;99.90;;;;;;5117838;28;20426;-69
2022/09/16 07:16:19;;;;;;;0.60;0.60;;;12.30;99.90;;;;;;5119068;28;20581;-69
2022/09/16 07:19:08;;;;;;;1.00;0.90;;;12.30;99.90;;;;;;5121160;28;20559;-73
2022/09/16 07:21:56;;;;;;;3.70;1.50;;;12.10;99.90;;;;;;5117526;28;20512;-72
2022/09/16 07:24:45;;;;;;;1.10;0.80;;;12.20;99.90;;;;;;5115583;28;20869;-70
2022/09/16 07:27:33;;;;;;;0.60;0.60;;;12.30;99.90;;;;;;5117258;28;20643;-69
2022/09/16 07:30:21;;;;;;;0.40;0.40;;;12.50;99.90;;;;;;5115373;28;20514;-69
2022/09/16 07:33:10;;;;;;;3.70;1.07;;;12.60;99.90;;;;;;5116536;28;20874;-69
2022/09/16 07:35:59;;;;;;;1.00;0.70;;;12.80;99.90;;;;;;5116116;28;20472;-68
2022/09/16 07:38:47;;;;;;;0.87;0.47;;;13.00;99.90;;;;;;5095604;28;20862;-71
2022/09/16 07:41:39;;;;;;;0.40;0.40;;;13.20;99.90;;;;;;5095712;28;20540;-69
2022/09/16 07:44:27;;;;;;;0.40;0.40;;;13.50;99.90;;;;;;5097707;28;20481;-69
2022/09/16 07:47:15;;;;;;;0.80;0.80;;;13.60;99.90;;;;;;5105162;28;20513;-71
2022/09/16 07:50:10;;;;;;;0.83;0.60;;;13.70;99.90;;;;;;5099113;28;20453;-70
2022/09/16 07:52:58;;;;;;;5.50;2.67;;;13.90;99.90;;;;;;5116781;28;20426;-69
2022/09/16 07:55:46;;;;;;;2.50;1.30;;;14.00;99.90;;;;;;5116132;28;20554;-69
2022/09/16 07:58:35;;;;;;;0.50;0.50;;;14.00;99.90;;;;;;5117083;28;20508;-70
2022/09/16 08:01:30;;;;;;;0.40;0.40;;;14.10;99.90;;;;;;5115264;28;20450;-70
2022/09/16 08:04:19;;;;;;;0.60;0.60;;;14.00;99.90;;;;;;5117503;28;20567;-70
2022/09/16 08:07:07;;;;;;;0.80;0.60;;;14.00;99.90;;;;;;5120157;28;20453;-70
2022/09/16 08:09:55;;;;;;;0.40;0.40;;;14.00;99.90;;;;;;5116651;28;20453;-70
2022/09/16 08:12:47;;;;;;;1.30;0.73;;;14.10;99.90;;;;;;5117313;28;20432;-70
2022/09/16 08:15:36;;;;;;;0.60;0.60;;;14.20;99.90;;;;;;5117356;28;20556;-70
2022/09/16 08:18:24;;;;;;;0.40;0.40;;;14.30;99.90;;;;;;5116904;28;20429;-70
2022/09/16 08:21:15;;;;;;;0.50;0.50;;;14.40;99.90;;;;;;5119402;28;20454;-70
2022/09/16 08:24:03;;;;;;;11.03;1.20;;;14.30;99.90;;;;;;5136699;28;20420;-69
2022/09/16 08:26:52;;;;;;;0.50;0.50;;;14.30;99.90;;;;;;5137764;28;20445;-71
2022/09/16 08:29:40;;;;;;;0.50;0.50;;;14.50;99.90;;;;;;5136576;28;20429;-69
2022/09/16 08:32:29;;;;;;;0.60;0.60;;;14.40;99.90;;;;;;5117542;28;20449;-69
2022/09/16 08:35:19;;;;;;;0.40;0.40;;;14.40;99.90;;;;;;5112492;28;20529;-70
2022/09/16 08:38:07;;;;;;;0.57;0.57;;;14.20;99.90;;;;;;5110649;28;20414;-71
2022/09/16 08:41:04;;;;;;;0.50;0.50;;;14.20;99.90;;;;;;5125132;28;20468;-69
2022/09/16 08:44:01;;;;;;;0.50;0.50;;;14.10;99.90;;;;;;5136888;28;20463;-71
2022/09/16 08:46:52;;;;;;;0.40;0.40;;;14.20;99.90;;;;;;5136718;28;20443;-70
2022/09/16 08:49:45;;;;;;;0.60;0.50;;;14.40;99.90;;;;;;5130137;28;20486;-70
2022/09/16 08:52:36;;;;;;;0.60;0.60;;;14.40;99.90;;;;;;5136495;28;20569;-69
2022/09/16 08:55:30;;;;;;;0.50;0.50;;;14.40;99.90;;;;;;5132625;28;20469;-70
2022/09/16 08:58:20;;;;;;;2.30;0.70;;;14.50;99.90;;;;;;5119187;28;20434;-70
2022/09/16 09:01:17;;;;;;;0.40;0.40;;;14.50;99.90;;;;;;5124827;28;20442;-70
2022/09/16 09:04:06;;;;;;;0.40;0.40;;;14.60;99.90;;;;;;5126239;28;20445;-70
2022/09/16 09:07:06;;;;;;;0.93;0.77;;;14.80;99.90;;;;;;5125371;28;20425;-70
2022/09/16 09:10:02;;;;;;;0.80;0.60;;;15.00;99.90;;;;;;5104415;28;20430;-70
2022/09/16 09:13:20;;;;;;;0.50;0.50;;;15.10;99.90;;;;;;5106240;28;20440;-70
2022/09/16 09:16:16;;;;;;;0.90;0.70;;;15.30;99.90;;;;;;5108433;28;20465;-69
2022/09/16 09:19:16;;;;;;;1.00;0.70;;;15.10;99.90;;;;;;5120411;28;20533;-70
2022/09/16 09:22:19;;;;;;;0.60;0.50;;;15.00;99.90;;;;;;5126234;28;20584;-70
2022/09/16 09:25:22;;;;;;;0.50;0.50;;;15.00;99.90;;;;;;5126376;28;20463;-69
2022/09/16 09:28:22;;;;;;;1.00;0.50;;;15.10;99.90;;;;;;5133358;28;20449;-70
2022/09/16 09:31:18;;;;;;;0.50;0.50;;;15.20;99.90;;;;;;5131542;28;20505;-69
2022/09/16 09:34:24;;;;;;;0.50;0.50;;;15.30;99.90;;;;;;5132352;28;20429;-71
2022/09/16 09:37:26;;;;;;;0.50;0.50;;;15.20;99.90;;;;;;5125705;28;20500;-71
2022/09/16 09:40:19;;;;;;;0.40;0.40;;;15.30;99.90;;;;;;5127862;28;20435;-71
2022/09/16 09:43:13;;;;;;;0.50;0.50;;;16.00;99.90;;;;;;5128327;28;20425;-71
2022/09/16 09:46:07;;;;;;;0.40;0.40;;;16.00;99.90;;;;;;5114223;28;20490;-68
2022/09/16 09:48:59;;;;;;;0.40;0.40;;;16.10;99.90;;;;;;5119343;28;20455;-70
2022/09/16 09:51:51;;;;;;;0.40;0.40;;;16.40;99.90;;;;;;5132682;28;20464;-70
2022/09/16 09:54:47;;;;;;;0.53;0.53;;;16.50;99.90;;;;;;5131894;28;20977;-71
2022/09/16 09:57:45;;;;;;;1.17;0.87;;;16.40;99.90;;;;;;5117828;28;20537;-71
2022/09/16 10:00:34;;;;;;;0.63;0.60;;;16.10;99.90;;;;;;5110223;28;20255;-68
2022/09/16 10:03:23;;;;;;;0.60;0.50;;;16.10;99.90;;;;;;5113524;28;20444;-69
2022/09/16 10:06:12;;;;;;;0.40;0.40;;;16.30;99.90;;;;;;5112026;28;20448;-71
2022/09/16 10:09:01;;;;;;;5.30;0.87;;;16.50;99.90;;;;;;5113992;28;20497;-68
2022/09/16 10:11:53;;;;;;;1.17;0.60;;;16.50;99.90;;;;;;5114593;28;20454;-68
2022/09/16 10:14:46;;;;;;;2.80;0.70;;;16.60;99.90;;;;;;5113590;28;21031;-68
2022/09/16 10:17:35;;;;;;;0.40;0.40;;;16.50;99.90;;;;;;5111686;28;20425;-69
2022/09/16 10:20:28;;;;;;;0.60;0.60;;;16.20;99.90;;;;;;5112274;28;20208;-68
2022/09/16 10:23:23;;;;;;;0.40;0.40;;;16.20;99.90;;;;;;5113917;28;20477;-69
2022/09/16 10:26:20;;;;;;;0.40;0.40;;;16.30;99.90;;;;;;5111489;28;20291;-72
2022/09/16 10:29:18;;;;;;;0.40;0.40;;;16.30;99.90;;;;;;5113402;28;20248;-73
2022/09/16 10:32:09;;;;;;;0.40;0.40;;;16.30;99.90;;;;;;5113928;28;20480;-71
2022/09/16 10:34:57;;;;;;;0.40;0.40;;;16.40;99.90;;;;;;5111978;28;20460;-72
2022/09/16 10:37:50;;;;;;;0.50;0.50;;;16.40;99.90;;;;;;5111470;28;20426;-71
2022/09/16 10:40:39;;;;;;;0.40;0.40;;;16.80;99.90;;;;;;5119263;28;20441;-71
2022/09/16 10:43:30;;;;;;;0.40;0.40;;;17.00;99.90;;;;;;5122123;28;20196;-69
2022/09/16 10:46:20;;;;;;;0.40;0.40;;;16.80;99.90;;;;;;5111602;28;20283;-74
2022/09/16 10:49:12;;;;;;;0.50;0.50;;;16.80;99.90;;;;;;5114412;28;20196;-68
2022/09/16 10:52:16;;;;;;;0.40;0.40;;;16.70;99.90;;;;;;5113937;28;20196;-69
2022/09/16 10:55:20;;;;;;;0.73;0.50;;;16.60;99.90;;;;;;5113629;28;20216;-73
2022/09/16 10:58:14;;;;;;;0.40;0.40;;;16.40;99.90;;;;;;5112764;28;20419;-69
2022/09/16 11:01:23;;;;;;;0.60;0.60;;;16.50;99.90;;;;;;5113583;28;20456;-70
2022/09/16 11:04:57;;;;;;;0.40;0.40;;;16.50;99.90;;;;;;5112718;28;20242;-69
2022/09/16 11:07:52;;;;;;;0.40;0.40;;;16.90;99.90;;;;;;5110610;28;20676;-68
2022/09/16 11:10:45;;;;;;;0.40;0.40;;;17.20;99.90;;;;;;5111009;28;20188;-71
2022/09/16 11:13:43;;;;;;;0.40;0.40;;;17.20;99.90;;;;;;5112985;28;20196;-68
2022/09/16 11:16:53;;;;;;;0.40;0.40;;;17.10;99.90;;;;;;5111343;28;20245;-68
2022/09/16 11:19:54;;;;;;;0.50;0.50;;;17.00;99.90;;;;;;5111228;28;20275;-71
2022/09/16 11:22:51;;;;;;;1.17;0.70;;;17.20;99.90;;;;;;5115067;28;20198;-69
2022/09/16 11:25:46;;;;;;;0.40;0.40;;;17.40;99.90;;;;;;5116275;28;20287;-71
2022/09/16 11:28:50;;;;;;;0.40;0.40;;;17.20;99.90;;;;;;5116529;28;20200;-69
2022/09/16 11:31:53;;;;;;;0.40;0.40;;;17.00;99.90;;;;;;5116341;28;20187;-72
2022/09/16 11:35:00;;;;;;;0.40;0.40;;;17.00;99.90;;;;;;5115470;28;20275;-69
2022/09/16 11:37:54;;;;;;;0.40;0.40;;;17.20;99.90;;;;;;5114034;28;20216;-71
2022/09/16 11:40:47;;;;;;;2.43;0.80;;;17.60;99.90;;;;;;5113830;28;20203;-69
2022/09/16 11:43:55;;;;;;;0.50;0.50;;;17.90;99.90;;;;;;5115597;28;20224;-69
2022/09/16 11:46:55;;;;;;;0.43;0.43;;;18.00;99.90;;;;;;5114019;28;20230;-69
2022/09/16 11:50:00;;;;;;;0.70;0.70;;;18.10;99.90;;;;;;5113259;28;20199;-69
2022/09/16 11:53:08;;;;;;;0.50;0.50;;;18.20;99.90;;;;;;5115530;28;20259;-69
2022/09/16 11:56:03;;;;;;;0.40;0.40;;;18.10;99.90;;;;;;5114443;28;20227;-71
2022/09/16 11:58:55;;;;;;;0.40;0.40;;;18.10;99.90;;;;;;5116052;28;20204;-69
2022/09/16 12:01:49;;;;;;;0.60;0.50;;;17.70;99.90;;;;;;5114749;28;20224;-69
2022/09/16 12:04:42;;;;;;;6.43;0.70;;;17.70;99.90;;;;;;5112035;28;20212;-69
2022/09/16 12:07:35;;;;;;;1.02;0.40;;;17.80;99.90;;;;;;5112798;28;20196;-68
2022/09/16 12:10:27;;;;;;;0.60;0.60;;;18.10;99.90;;;;;;5112919;28;20222;-69
2022/09/16 12:13:21;;;;;;;0.40;0.40;;;18.20;99.90;;;;;;5111989;28;20235;-68
2022/09/16 12:16:13;;;;;;;0.40;0.40;;;18.30;99.90;;;;;;5111136;28;20215;-71
2022/09/16 12:19:10;;;;;;;0.43;0.43;;;18.30;99.90;;;;;;5107920;28;20259;-71
2022/09/16 12:22:03;;;;;;;0.50;0.50;;;18.40;99.90;;;;;;5109394;28;20227;-70
2022/09/16 12:24:58;;;;;;;0.40;0.40;;;18.30;99.90;;;;;;5107139;28;20309;-71
2022/09/16 12:27:51;;;;;;;0.40;0.40;;;18.40;99.90;;;;;;5108271;28;20256;-72
2022/09/16 12:30:44;;;;;;;0.40;0.40;;;18.50;99.90;;;;;;5108655;28;20231;-69
2022/09/16 12:33:38;;;;;;;0.60;0.60;;;18.40;99.90;;;;;;5109561;28;20200;-70
2022/09/16 12:36:31;;;;;;;0.40;0.40;;;18.30;99.90;;;;;;5109971;28;20291;-70
2022/09/16 12:39:19;;;;;;;0.50;0.50;;;18.20;99.90;;;;;;5110226;28;20263;-69
2022/09/16 12:43:00;;;;;;;0.40;0.40;;;18.00;99.90;;;;;;5109396;28;20210;-69
2022/09/16 12:46:01;;;;;;;0.40;0.40;;;17.70;99.90;;;;;;5108484;28;20212;-70
2022/09/16 12:49:14;;;;;;;0.50;0.50;;;17.60;99.90;;;;;;5109571;28;20206;-69
2022/09/16 12:52:45;;;;;;;0.40;0.40;;;17.50;99.90;;;;;;5108337;28;20626;-69
2022/09/16 12:56:00;;;;;;;0.40;0.40;;;17.40;99.90;;;;;;5107079;28;20302;-69
2022/09/16 12:59:18;;;;;;;0.40;0.40;;;17.60;99.90;;;;;;5107873;28;20279;-70
2022/09/16 13:02:14;;;;;;;1.02;1.02;;;17.70;99.90;;;;;;5103870;28;20204;-70
2022/09/16 13:05:11;;;;;;;0.50;0.50;;;17.80;99.80;;;;;;5107532;28;20286;-70
2022/09/16 13:08:05;;;;;;;1.35;0.50;;;18.20;98.40;;;;;;5107973;28;20219;-69
2022/09/16 13:10:58;;;;;;;0.40;0.40;;;18.80;96.70;;;;;;5110810;28;20204;-70
2022/09/16 13:14:21;;;;;;;0.50;0.50;;;19.50;96.10;;;;;;5110182;28;20192;-69
2022/09/16 13:17:11;;;;;;;0.55;0.55;;;21.20;94.90;;;;;;5109362;28;20215;-70
2022/09/16 13:20:06;;;;;;;0.40;0.40;;;22.20;92.90;;;;;;5107903;28;20195;-70
2022/09/16 13:23:07;;;;;;;0.40;0.40;;;22.60;92.50;;;;;;5100654;28;20260;-70
2022/09/16 13:25:59;;;;;;;0.40;0.40;;;23.00;90.80;;;;;;5099696;28;20230;-70
2022/09/16 13:28:47;;;;;;;0.70;0.57;;;21.80;91.50;;;;;;5107475;28;20220;-70
2022/09/16 13:31:47;;;;;;;0.40;0.40;;;20.90;91.80;;;;;;5108451;28;20200;-70
2022/09/16 13:34:35;;;;;;;1.40;0.88;;;20.20;92.00;;;;;;5105953;28;20228;-70
2022/09/16 13:37:26;;;;;;;0.40;0.40;;;20.00;92.40;;;;;;5106887;28;20212;-70
2022/09/16 13:40:21;;;;;;;0.40;0.40;;;20.00;92.50;;;;;;5106830;28;20200;-70
2022/09/16 13:43:14;;;;;;;0.50;0.50;;;20.20;91.00;;;;;;5105224;28;20204;-70
2022/09/16 13:46:08;;;;;;;0.40;0.40;;;19.80;91.10;;;;;;5106897;28;20313;-70
2022/09/16 13:49:06;;;;;;;0.40;0.40;;;20.80;91.10;;;;;;5108664;28;20285;-70
2022/09/16 13:51:54;;;;;;;0.73;0.73;;;22.40;89.20;;;;;;5107494;28;20200;-70
2022/09/16 13:54:49;;;;;;;3.33;0.73;;;23.50;85.30;;;;;;5106343;28;20247;-71
2022/09/16 13:58:02;;;;;;;0.60;0.60;;;24.10;81.50;;;;;;5122525;28;20219;-70
2022/09/16 14:01:00;;;;;;;0.43;0.40;;;23.40;79.20;;;;;;5127446;28;20187;-70
2022/09/16 14:03:57;;;;;;;0.40;0.40;;;22.90;80.20;;;;;;5122488;28;20207;-71
2022/09/16 14:07:10;;;;;;;0.40;0.40;;;23.20;79.90;;;;;;5115491;28;20278;-71
2022/09/16 14:10:03;;;;;;;0.40;0.40;;;24.80;78.80;;;;;;5112439;28;20203;-70
2022/09/16 14:13:06;;;;;;;0.40;0.40;;;26.60;73.90;;;;;;5111025;28;20282;-70
2022/09/16 14:15:57;;;;;;;0.40;0.40;;;26.80;69.40;;;;;;5112201;28;20218;-70
2022/09/16 14:19:00;;;;;;;0.60;0.60;;;27.40;69.00;;;;;;5112047;28;20653;-71
2022/09/16 14:22:00;;;;;;;0.40;0.40;;;28.20;65.30;;;;;;5112390;28;20242;-71
2022/09/16 14:24:48;;;;;;;0.40;0.40;;;28.50;61.10;;;;;;5112477;28;20706;-70
2022/09/16 14:28:17;;;;;;;0.40;0.40;;;28.10;61.00;;;;;;5111363;28;20195;-70
2022/09/16 14:31:10;;;;;;;0.40;0.40;;;28.10;61.40;;;;;;5111147;28;20249;-71
2022/09/16 14:34:03;;;;;;;0.40;0.40;;;27.10;60.70;;;;;;5115978;28;20272;-71
2022/09/16 14:36:51;;;;;;;0.40;0.40;;;25.00;64.70;;;;;;5123510;28;20203;-71
2022/09/16 14:39:41;;;;;;;0.55;0.50;;;;;;;;;;5128900;28;20639;-69
2022/09/16 14:42:30;;;;;;;1.20;0.40;;;22.00;67.50;;;;;;5125806;28;20308;-69
2022/09/16 14:45:20;;;;;;;0.45;0.40;;;20.90;71.10;;;;;;5125584;28;20280;-72
2022/09/16 14:48:10;;;;;;;0.40;0.40;;;20.60;73.00;;;;;;5127297;28;20226;-69
2022/09/16 14:50:58;;;;;;;0.40;0.40;;;20.60;73.90;;;;;;5126151;28;20256;-72
2022/09/16 14:53:55;;;;;;;0.40;0.40;;;20.60;74.30;;;;;;5128758;28;20196;-73
2022/09/16 14:57:00;;;;;;;1.85;1.75;;;20.30;75.60;;;;;;5122111;28;20196;-69
2022/09/16 14:59:51;;;;;;;0.40;0.40;;;20.20;77.10;;;;;;5109654;28;20279;-71
2022/09/16 15:02:44;;;;;;;0.75;0.75;;;20.20;77.70;;;;;;5110269;28;20206;-69
2022/09/16 15:05:34;;;;;;;0.40;0.40;;;19.90;78.70;;;;;;5110528;28;20220;-72